メインページ
METAR-TAF:

METAR-TAF

空港 :

ヴェラナ国際空港

マレ, モルディブ

緯度: 04-12N, 経度: 073-32E, 海抜: 2m

現時点の気象観測

当レポートは1時間27分前の18:00(UTC)に作成
西の風 11kt
気温 29°C
湿度 74%
気圧 1011 hPa
視程10km以上
高度1800ftの雲はほとんどない, 塔状積雲.
高度27000ftの千切れ雲あり

METAR: VRMM 181800Z 27011KT 9999 FEW018TCU BKN270 29/24 Q1011 TEMPO FEW018CB

時間: 00:27 (19:27 UTC)

予報

当レポートは2時間27分前の17:00(UTC)に作成
予報は18日の 18時(UTC)から 19日の 24時(UTC)まで有効
西の風 10kt
視程10km以上
高度1800ftの雲はほとんどない, 塔状積雲.
18日の 19時(UTC)から 19日の 01時(UTC)まで一時的に
視程: 5000m
高度1700ftの雲はほとんどない, 積乱雲.
弱いにわか雨

TAF: VRMM 181700Z 1818/1924 26010KT 9999 FEW018TCU TEMPO 1819/1901 5000 -SHRA FEW017CB

4,000以上の空港の気象観測と天気予報(METAR報とTAF報)

利用可能な観測所は地図上に黄色い丸と赤い丸で示す。

丸の上にカーソルを重ねると観測所名を参照できる。

次にクリックすると気象観測と天気予報を参照できる。

マップの切り替え:黒色「×」印の緑ボタンをクリックして拡大、「-」印の緑ボタンをクリックして縮小、緑色の三角印をクリックして隣りの地図に切り替え


METAR-TAF: